Time;durP1;ratioP1;P1;durP2;ratioP2;P2;SDS_P1;SDS_P2;PMS_P1;PMS_P2;Temp;Humidity;BMP_temperature;BMP_pressure;BME280_temperature;BME280_humidity;BME280_pressure;Samples;Min_cycle;Max_cycle;Signal;HPM_P1;HPM_P2
2023/01/23 00:00:47;;;;;;;;;;;;;;;1.45;97.93;103469.25;4998093;28;19975;-58
2023/01/23 00:03:12;;;;;;;;;;;;;;;1.44;98.23;103469.28;4994293;28;19921;-59
2023/01/23 00:05:37;;;;;;;;;;;;;;;1.43;98.07;103468.41;4988390;28;19913;-58
2023/01/23 00:08:04;;;;;;;;;;;;;;;1.43;97.99;103467.56;4992520;28;21373;-59
2023/01/23 00:10:29;;;;;;;;;;;;;;;1.42;97.99;103465.84;4989764;28;19918;-58
2023/01/23 00:12:56;;;;;;;;;;;;;;;1.42;98.01;103464.09;4987923;28;19918;-59
2023/01/23 00:15:21;;;;;;;;;;;;;;;1.42;98.09;103460.63;4990164;28;19949;-59
2023/01/23 00:17:47;;;;;;;;;;;;;;;1.42;98.00;103463.22;4986412;28;19951;-59
2023/01/23 00:20:12;;;;;;;;;;;;;;;1.41;98.21;103465.00;4981183;28;19925;-59
2023/01/23 00:22:37;;;;;;;;;;;;;;;1.43;97.98;103467.56;4994506;28;19918;-58
2023/01/23 00:25:03;;;;;;;;;;;;;;;1.43;98.19;103468.41;4990311;28;19948;-58
2023/01/23 00:27:28;;;;;;;;;;;;;;;1.43;98.22;103465.81;4986949;28;19918;-59
2023/01/23 00:29:54;;;;;;;;;;;;;;;1.44;98.27;103475.38;4976431;28;19980;-58
2023/01/23 00:32:19;;;;;;;;;;;;;;;1.44;98.09;103477.13;4982215;28;19934;-58
2023/01/23 00:34:45;;;;;;;;;;;;;;;1.44;98.42;103479.75;4987014;28;19960;-57
2023/01/23 00:37:10;;;;;;;;;;;;;;;1.43;98.33;103480.66;4981000;28;19980;-58
2023/01/23 00:39:35;;;;;;;;;;;;;;;1.43;98.27;103475.41;4984918;28;19917;-59
2023/01/23 00:42:00;;;;;;;;;;;;;;;1.43;98.38;103481.50;4980616;28;19918;-59
2023/01/23 00:44:26;;;;;;;;;;;;;;;1.42;98.19;103485.03;4989877;28;19915;-58
2023/01/23 00:46:51;;;;;;;;;;;;;;;1.42;98.19;103485.03;4993288;28;19930;-58
2023/01/23 00:49:16;;;;;;;;;;;;;;;1.41;98.22;103480.69;4986093;28;19924;-58
2023/01/23 00:51:42;;;;;;;;;;;;;;;1.41;98.36;103475.47;4986113;28;19930;-59
2023/01/23 00:54:07;;;;;;;;;;;;;;;1.40;98.54;103479.00;4990439;28;19921;-58
2023/01/23 00:56:32;;;;;;;;;;;;;;;1.40;98.23;103473.75;4989024;28;20012;-57
2023/01/23 00:58:57;;;;;;;;;;;;;;;1.41;98.27;103472.84;4988596;28;19933;-59
2023/01/23 01:01:22;;;;;;;;;;;;;;;1.41;98.54;103480.69;4983634;28;19954;-58
2023/01/23 01:03:48;;;;;;;;;;;;;;;1.42;98.66;103473.69;4985593;28;19932;-59
2023/01/23 01:06:13;;;;;;;;;;;;;;;1.42;98.55;103477.19;4985820;28;20004;-58
2023/01/23 01:08:38;;;;;;;;;;;;;;;1.43;98.31;103476.28;4998230;28;19918;-59
2023/01/23 01:11:04;;;;;;;;;;;;;;;1.42;98.52;103479.78;4990747;28;19960;-58
2023/01/23 01:13:29;;;;;;;;;;;;;;;1.41;98.40;103480.69;4993288;28;19961;-58
2023/01/23 01:15:54;;;;;;;;;;;;;;;1.41;98.55;103480.69;4987881;28;20365;-58
2023/01/23 01:18:20;;;;;;;;;;;;;;;1.42;98.39;103487.66;4988550;28;19925;-58
2023/01/23 01:20:45;;;;;;;;;;;;;;;1.42;98.53;103490.28;4983309;28;20008;-59
2023/01/23 01:23:11;;;;;;;;;;;;;;;1.43;98.51;103478.03;5000332;28;20329;-59
2023/01/23 01:25:37;;;;;;;;;;;;;;;1.44;98.81;103479.75;4998481;28;19972;-59
2023/01/23 01:28:02;;;;;;;;;;;;;;;1.43;98.74;103478.03;4988065;28;20449;-58
2023/01/23 01:30:28;;;;;;;;;;;;;;;1.43;98.83;103484.13;4986912;28;19925;-58
2023/01/23 01:32:53;;;;;;;;;;;;;;;1.44;98.58;103496.31;4987772;28;19922;-58
2023/01/23 01:35:19;;;;;;;;;;;;;;;1.44;98.70;103496.31;4988202;28;19918;-57
2023/01/23 01:37:44;;;;;;;;;;;;;;;1.44;98.64;103496.31;4999008;28;20344;-58
2023/01/23 01:40:15;;;;;;;;;;;;;;;1.44;98.69;103491.06;4992411;28;19918;-58
2023/01/23 01:42:48;;;;;;;;;;;;;;;1.44;98.73;103488.47;4992349;28;19925;-58
2023/01/23 01:45:32;;;;;;;;;;;;;;;1.46;98.97;103486.69;4989088;28;19918;-58
2023/01/23 01:47:57;;;;;;;;;;;;;;;1.45;98.70;103498.06;4995531;28;19952;-58
2023/01/23 01:50:23;;;;;;;;;;;;;;;1.46;98.82;103498.91;4994501;28;20408;-58
2023/01/23 01:52:48;;;;;;;;;;;;;;;1.45;98.87;103487.59;4988528;28;19922;-58
2023/01/23 01:55:14;;;;;;;;;;;;;;;1.46;98.91;103496.31;4991833;28;20419;-59
2023/01/23 01:57:41;;;;;;;;;;;;;;;1.45;99.00;103500.69;4999792;28;19922;-58
2023/01/23 02:00:06;;;;;;;;;;;;;;;1.46;99.06;103502.38;4997764;28;19929;-59
2023/01/23 02:02:34;;;;;;;;;;;;;;;1.45;99.25;103495.44;4981199;28;19922;-59
2023/01/23 02:05:01;;;;;;;;;;;;;;;1.45;99.13;103492.81;4993737;28;19932;-59
2023/01/23 02:07:31;;;;;;;;;;;;;;;1.45;99.22;103495.44;4994045;28;19918;-59
2023/01/23 02:09:56;;;;;;;;;;;;;;;1.38;99.13;103485.19;4992331;28;20011;-59
2023/01/23 02:12:22;;;;;;;;;;;;;;;1.45;99.07;103491.97;4988376;28;20551;-59
2023/01/23 02:14:47;;;;;;;;;;;;;;;1.44;99.29;103496.31;4993698;28;20400;-59
2023/01/23 02:17:12;;;;;;;;;;;;;;;1.44;99.52;103496.31;4992907;28;19965;-59
2023/01/23 02:19:53;;;;;;;;;;;;;;;1.45;99.31;103497.19;5001030;28;19961;-59
2023/01/23 02:22:31;;;;;;;;;;;;;;;1.44;99.44;103495.47;4988965;28;20389;-58
2023/01/23 02:25:03;;;;;;;;;;;;;;;1.45;99.49;103491.97;4982611;28;19933;-58
2023/01/23 02:27:28;;;;;;;;;;;;;;;1.45;99.48;103502.44;4994048;28;19921;-59
2023/01/23 02:29:55;;;;;;;;;;;;;;;1.43;99.53;103489.38;4993145;28;19972;-59
2023/01/23 02:32:23;;;;;;;;;;;;;;;1.44;99.42;103501.56;4998570;28;19917;-59
2023/01/23 02:34:48;;;;;;;;;;;;;;;1.44;99.78;103490.22;4993312;28;19914;-59
2023/01/23 02:37:14;;;;;;;;;;;;;;;1.45;99.50;103491.97;4994760;28;20401;-57
2023/01/23 02:39:39;;;;;;;;;;;;;;;1.45;99.70;103487.59;4989159;28;19968;-58
2023/01/23 02:42:05;;;;;;;;;;;;;;;1.45;99.67;103491.97;4987650;28;19917;-58
2023/01/23 02:44:31;;;;;;;;;;;;;;;1.46;99.76;103494.53;4989224;28;19918;-58
2023/01/23 02:46:57;;;;;;;;;;;;;;;1.47;99.97;103498.00;4993586;28;19940;-59
2023/01/23 02:49:22;;;;;;;;;;;;;;;1.47;99.72;103498.88;4998143;28;20029;-58
2023/01/23 02:51:48;;;;;;;;;;;;;;;1.47;99.82;103492.78;4998240;28;20034;-58
2023/01/23 02:54:13;;;;;;;;;;;;;;;1.49;99.93;103504.06;4986306;28;19918;-58
2023/01/23 02:56:40;;;;;;;;;;;;;;;1.49;99.79;103506.69;4997738;28;20365;-59
2023/01/23 03:01:50;;;;;;;;;;;;;;;1.49;99.93;103504.91;4986738;28;20337;-59
2023/01/23 03:04:15;;;;;;;;;;;;;;;1.51;99.76;103503.09;4987154;28;19921;-59
2023/01/23 03:06:40;;;;;;;;;;;;;;;1.51;99.94;103503.09;4988046;28;19921;-58
2023/01/23 03:09:10;;;;;;;;;;;;;;;1.51;99.88;103507.50;4991892;28;19918;-59
2023/01/23 03:11:37;;;;;;;;;;;;;;;1.51;99.89;103503.09;4986449;28;20060;-59
2023/01/23 03:14:03;;;;;;;;;;;;;;;1.50;99.73;103504.00;4989913;28;19918;-59
2023/01/23 03:16:28;;;;;;;;;;;;;;;1.52;99.76;103504.81;4989937;28;19917;-58
2023/01/23 03:18:54;;;;;;;;;;;;;;;1.52;99.88;103506.56;4985586;28;20378;-59
2023/01/23 03:21:19;;;;;;;;;;;;;;;1.53;99.83;103508.28;4995435;28;19941;-58
2023/01/23 03:23:46;;;;;;;;;;;;;;;1.53;99.54;103501.28;4983560;28;20459;-59
2023/01/23 03:26:12;;;;;;;;;;;;;;;1.53;99.81;103503.06;4985392;28;19914;-58
2023/01/23 03:31:21;;;;;;;;;;;;;;;1.53;99.79;103509.16;4982114;28;19929;-59
2023/01/23 03:33:46;;;;;;;;;;;;;;;1.52;99.85;103502.19;4980928;28;19922;-58
2023/01/23 03:36:11;;;;;;;;;;;;;;;1.51;99.95;103510.97;4981870;28;20398;-58
2023/01/23 03:38:37;;;;;;;;;;;;;;;1.51;99.93;103508.34;4984779;28;19918;-58
2023/01/23 03:43:47;;;;;;;;;;;;;;;1.51;99.90;103497.88;4981432;28;20037;-58
2023/01/23 03:46:12;;;;;;;;;;;;;;;1.51;99.87;103497.88;4983889;28;20020;-57
2023/01/23 03:48:38;;;;;;;;;;;;;;;1.52;99.90;103501.34;4985659;28;20289;-59
2023/01/23 03:51:03;;;;;;;;;;;;;;;1.52;99.99;103503.97;4987751;28;20300;-58
2023/01/23 03:53:29;;;;;;;;;;;;;;;1.52;99.84;103501.34;4972093;28;20413;-59
2023/01/23 03:55:54;;;;;;;;;;;;;;;1.51;100.00;103497.00;4978978;28;19914;-57
2023/01/23 03:58:19;;;;;;;;;;;;;;;1.51;100.00;103491.78;4978351;28;20424;-58
2023/01/23 04:00:44;;;;;;;;;;;;;;;1.52;100.00;103488.25;4983408;28;19914;-58
2023/01/23 04:03:09;;;;;;;;;;;;;;;1.50;100.00;103500.53;4982625;28;20407;-58
2023/01/23 04:05:34;;;;;;;;;;;;;;;1.50;100.00;103500.53;4988323;28;19920;-58
2023/01/23 04:08:00;;;;;;;;;;;;;;;1.50;100.00;103505.78;4983976;28;19918;-58
2023/01/23 04:10:25;;;;;;;;;;;;;;;1.49;100.00;103510.16;4977227;28;19925;-59
2023/01/23 04:12:50;;;;;;;;;;;;;;;1.49;100.00;103514.53;4978211;28;20583;-58
2023/01/23 04:15:15;;;;;;;;;;;;;;;1.49;100.00;103510.16;4980481;28;20012;-59
2023/01/23 04:17:41;;;;;;;;;;;;;;;1.49;100.00;103510.16;4980450;28;19918;-59
2023/01/23 04:20:06;;;;;;;;;;;;;;;1.49;100.00;103510.16;4996769;28;19926;-58
2023/01/23 04:22:31;;;;;;;;;;;;;;;1.50;100.00;103511.88;4992216;28;19918;-58
2023/01/23 04:24:57;;;;;;;;;;;;;;;1.51;100.00;103510.97;4988866;28;19925;-57
2023/01/23 04:27:22;;;;;;;;;;;;;;;1.51;100.00;103510.09;4990441;28;19961;-58
2023/01/23 04:29:47;;;;;;;;;;;;;;;1.47;100.00;103509.34;4992511;28;19932;-58
2023/01/23 04:32:12;;;;;;;;;;;;;;;1.52;100.00;103511.81;4989450;28;19922;-58
2023/01/23 04:34:38;;;;;;;;;;;;;;;1.52;100.00;103520.53;4986261;28;19963;-59
2023/01/23 04:37:03;;;;;;;;;;;;;;;1.52;100.00;103515.28;4988479;28;19925;-58
2023/01/23 04:39:29;;;;;;;;;;;;;;;1.53;100.00;103519.63;4988864;28;19913;-59
2023/01/23 04:41:54;;;;;;;;;;;;;;;1.55;100.00;103530.91;4995596;28;20004;-58
2023/01/23 04:44:19;;;;;;;;;;;;;;;1.57;100.00;103530.00;4988283;28;20385;-58
2023/01/23 04:46:45;;;;;;;;;;;;;;;1.57;100.00;103520.38;4987918;28;19922;-58
2023/01/23 04:49:10;;;;;;;;;;;;;;;1.60;100.00;103524.66;4996207;28;19918;-59
2023/01/23 04:51:36;;;;;;;;;;;;;;;1.60;100.00;103527.28;4985542;28;19926;-59
2023/01/23 04:54:01;;;;;;;;;;;;;;;1.62;100.00;103528.09;4998638;28;20443;-59
2023/01/23 04:56:26;;;;;;;;;;;;;;;1.61;100.00;103524.63;4990236;28;20384;-58
2023/01/23 04:58:52;;;;;;;;;;;;;;;1.62;100.00;103526.34;4993772;28;19977;-57
2023/01/23 05:01:21;;;;;;;;;;;;;;;1.61;100.00;103519.38;4993411;28;19920;-58
2023/01/23 05:03:47;;;;;;;;;;;;;;;1.61;100.00;103522.00;4991568;28;19968;-59
2023/01/23 05:06:12;;;;;;;;;;;;;;;1.61;100.00;103521.16;4989841;28;19980;-58
2023/01/23 05:08:37;;;;;;;;;;;;;;;1.61;100.00;103529.84;4980028;28;20314;-58
2023/01/23 05:11:02;;;;;;;;;;;;;;;1.61;100.00;103527.25;4985210;28;19929;-58
2023/01/23 05:13:27;;;;;;;;;;;;;;;1.61;100.00;103524.63;4985596;28;20018;-58
2023/01/23 05:15:53;;;;;;;;;;;;;;;1.62;100.00;103533.34;4987609;28;19924;-58
2023/01/23 05:18:18;;;;;;;;;;;;;;;1.62;100.00;103539.44;4997460;28;19949;-59
2023/01/23 05:20:43;;;;;;;;;;;;;;;1.63;100.00;103532.44;4989848;28;19929;-58
2023/01/23 05:23:08;;;;;;;;;;;;;;;1.63;100.00;103542.91;4986681;28;19964;-59
2023/01/23 05:25:34;;;;;;;;;;;;;;;1.62;100.00;103538.56;4984554;28;20533;-58
2023/01/23 05:27:59;;;;;;;;;;;;;;;1.63;100.00;103542.91;5002587;28;19914;-59
2023/01/23 05:30:24;;;;;;;;;;;;;;;1.64;100.00;103548.09;4985513;28;19918;-58
2023/01/23 05:32:49;;;;;;;;;;;;;;;1.65;100.00;103546.34;4996723;28;19913;-59
2023/01/23 05:35:14;;;;;;;;;;;;;;;1.66;100.00;103545.44;5001899;28;19968;-58
2023/01/23 05:37:40;;;;;;;;;;;;;;;1.67;100.00;103544.53;4986647;28;20494;-58
2023/01/23 05:40:07;;;;;;;;;;;;;;;1.67;100.00;103544.53;4990748;28;20390;-58
2023/01/23 05:42:32;;;;;;;;;;;;;;;1.67;100.00;103552.38;4991348;28;19917;-58
2023/01/23 05:44:58;;;;;;;;;;;;;;;1.68;100.00;103546.25;4985570;28;19948;-58
2023/01/23 05:47:23;;;;;;;;;;;;;;;1.69;100.00;103553.19;4982422;28;19913;-59
2023/01/23 05:49:48;;;;;;;;;;;;;;;1.68;100.00;103551.47;4996634;28;19917;-57
2023/01/23 05:52:13;;;;;;;;;;;;;;;1.67;100.00;103553.25;4985477;28;19917;-59
2023/01/23 05:54:38;;;;;;;;;;;;;;;1.68;100.00;103554.97;4990769;28;19960;-57
2023/01/23 05:57:03;;;;;;;;;;;;;;;1.67;100.00;103558.47;4995617;28;19914;-58
2023/01/23 05:59:29;;;;;;;;;;;;;;;1.66;100.00;103553.28;4987547;28;20360;-59
2023/01/23 06:01:54;;;;;;;;;;;;;;;1.67;100.00;103555.00;4994228;28;19918;-57
2023/01/23 06:04:19;;;;;;;;;;;;;;;1.67;100.00;103555.00;4993906;28;19940;-58
2023/01/23 06:06:44;;;;;;;;;;;;;;;1.67;100.00;103555.84;4996543;28;19918;-59
2023/01/23 06:09:10;;;;;;;;;;;;;;;1.68;100.00;103554.97;4981363;28;19922;-57
2023/01/23 06:11:35;;;;;;;;;;;;;;;1.68;100.00;103551.47;4985920;28;20060;-58
2023/01/23 06:14:00;;;;;;;;;;;;;;;1.68;100.00;103554.09;4987752;28;20313;-58
2023/01/23 06:16:25;;;;;;;;;;;;;;;1.62;100.00;103543.81;4984662;28;19915;-58
2023/01/23 06:18:51;;;;;;;;;;;;;;;1.67;100.00;103561.09;4997044;28;20004;-58
2023/01/23 06:21:17;;;;;;;;;;;;;;;1.67;100.00;103558.47;4986729;28;19937;-57
2023/01/23 06:23:42;;;;;;;;;;;;;;;1.67;100.00;103561.09;4989582;28;19915;-59
2023/01/23 06:26:07;;;;;;;;;;;;;;;1.67;100.00;103562.88;4990684;28;19968;-59
2023/01/23 06:28:33;;;;;;;;;;;;;;;1.68;100.00;103559.34;4999308;28;19951;-58
2023/01/23 06:31:02;;;;;;;;;;;;;;;1.68;100.00;103567.19;4991943;28;19949;-59
2023/01/23 06:33:28;;;;;;;;;;;;;;;1.68;100.00;103572.44;4994144;28;19965;-58
2023/01/23 06:36:03;;;;;;;;;;;;;;;1.70;100.00;103578.47;5006421;28;19956;-57
2023/01/23 06:38:29;;;;;;;;;;;;;;;1.69;100.00;103567.16;4985284;28;19914;-59
2023/01/23 06:40:54;;;;;;;;;;;;;;;1.70;100.00;103565.38;5000016;28;19963;-59
2023/01/23 06:43:20;;;;;;;;;;;;;;;1.72;100.00;103571.44;4986018;28;19921;-57
2023/01/23 06:45:45;;;;;;;;;;;;;;;1.71;100.00;103567.09;4988608;28;19949;-59
2023/01/23 06:48:11;;;;;;;;;;;;;;;1.69;100.00;103568.91;4987193;28;19992;-59
2023/01/23 06:50:37;;;;;;;;;;;;;;;1.70;100.00;103576.72;4991611;28;19922;-58
2023/01/23 06:53:04;;;;;;;;;;;;;;;1.70;100.00;103579.34;4981936;28;19921;-58
2023/01/23 06:55:29;;;;;;;;;;;;;;;1.71;100.00;103588.06;4982063;28;20779;-59
2023/01/23 06:57:54;;;;;;;;;;;;;;;1.72;100.00;103585.38;4980858;28;19918;-59
2023/01/23 07:00:20;;;;;;;;;;;;;;;1.71;100.00;103582.81;4982336;28;20012;-58
2023/01/23 07:02:45;;;;;;;;;;;;;;;1.70;100.00;103581.09;4986356;28;19918;-59
2023/01/23 07:05:10;;;;;;;;;;;;;;;1.69;100.00;103587.25;4990338;28;19914;-57
2023/01/23 07:07:35;;;;;;;;;;;;;;;1.70;100.00;103596.81;4986603;28;19924;-59
2023/01/23 07:10:01;;;;;;;;;;;;;;;1.70;100.00;103588.97;4980037;28;20661;-58
2023/01/23 07:12:26;;;;;;;;;;;;;;;1.69;100.00;103589.88;4988730;28;19917;-58
2023/01/23 07:14:51;;;;;;;;;;;;;;;1.69;100.00;103582.00;4996568;28;19964;-59
2023/01/23 07:17:16;;;;;;;;;;;;;;;1.69;100.00;103595.09;4984139;28;20397;-58
2023/01/23 07:19:41;;;;;;;;;;;;;;;1.69;100.00;103598.59;4983403;28;19928;-57
2023/01/23 07:22:06;;;;;;;;;;;;;;;1.70;100.00;103604.69;4985729;28;20340;-58
2023/01/23 07:24:32;;;;;;;;;;;;;;;1.69;100.00;103606.44;4987042;28;19918;-59
2023/01/23 07:26:57;;;;;;;;;;;;;;;1.70;100.00;103608.16;4988077;28;19953;-59
2023/01/23 07:29:22;;;;;;;;;;;;;;;1.71;100.00;103603.78;4989239;28;19953;-58
2023/01/23 07:31:48;;;;;;;;;;;;;;;1.72;100.00;103605.50;4988745;28;20452;-59
2023/01/23 07:34:14;;;;;;;;;;;;;;;1.73;100.00;103617.69;4993500;28;19928;-58
2023/01/23 07:36:39;;;;;;;;;;;;;;;1.73;100.00;103623.78;4990612;28;20037;-59
2023/01/23 07:39:04;;;;;;;;;;;;;;;1.73;100.00;103623.78;4994389;28;19921;-58
2023/01/23 07:41:29;;;;;;;;;;;;;;;1.74;100.00;103627.28;4984358;28;19925;-58
2023/01/23 07:43:54;;;;;;;;;;;;;;;1.76;100.00;103635.97;4980758;28;20009;-58
2023/01/23 07:46:20;;;;;;;;;;;;;;;1.76;100.00;103635.97;4984307;28;19925;-59
2023/01/23 07:48:45;;;;;;;;;;;;;;;1.76;100.00;103630.72;4988213;28;19917;-59
2023/01/23 07:51:10;;;;;;;;;;;;;;;1.77;100.00;103642.91;4988054;28;19922;-58
2023/01/23 07:53:35;;;;;;;;;;;;;;;1.69;100.00;103631.78;4984822;28;19918;-58
2023/01/23 07:56:04;;;;;;;;;;;;;;;1.80;100.00;103650.69;4982806;28;19917;-58
2023/01/23 07:58:30;;;;;;;;;;;;;;;1.79;100.00;103644.59;4981103;28;19914;-59
2023/01/23 08:00:55;;;;;;;;;;;;;;;1.79;100.00;103641.09;4987282;28;19926;-59
2023/01/23 08:03:20;;;;;;;;;;;;;;;1.80;100.00;103635.81;4983327;28;19993;-58
2023/01/23 08:05:48;;;;;;;;;;;;;;;1.81;100.00;103645.41;4998273;28;19926;-59
2023/01/23 08:08:13;;;;;;;;;;;;;;;1.83;100.00;103645.34;4988991;28;20640;-58
2023/01/23 08:10:39;;;;;;;;;;;;;;;1.83;100.00;103640.09;5001659;28;19925;-59
2023/01/23 08:13:04;;;;;;;;;;;;;;;1.84;100.00;103647.06;4989642;28;19929;-59
2023/01/23 08:15:29;;;;;;;;;;;;;;;1.85;100.00;103647.00;4992371;28;19914;-59
2023/01/23 08:17:54;;;;;;;;;;;;;;;1.85;100.00;103649.63;4989800;28;19922;-58
2023/01/23 08:20:21;;;;;;;;;;;;;;;1.88;100.00;103647.81;4990897;28;19929;-58
2023/01/23 08:22:47;;;;;;;;;;;;;;;1.88;100.00;103653.94;4985888;28;20013;-58
2023/01/23 08:25:12;;;;;;;;;;;;;;;1.89;100.00;103649.53;4991229;28;20021;-58
2023/01/23 08:27:37;;;;;;;;;;;;;;;1.90;100.00;103646.88;4979715;28;19914;-58
2023/01/23 08:30:03;;;;;;;;;;;;;;;1.90;100.00;103657.34;4984940;28;19972;-58
2023/01/23 08:32:28;;;;;;;;;;;;;;;1.91;100.00;103659.06;4988765;28;19932;-59
2023/01/23 08:34:54;;;;;;;;;;;;;;;1.93;100.00;103659.03;4986332;28;19924;-59
2023/01/23 08:37:19;;;;;;;;;;;;;;;1.94;100.00;103652.88;4997263;28;19921;-58
2023/01/23 08:39:44;;;;;;;;;;;;;;;1.95;100.00;103665.94;4988038;28;19998;-59
2023/01/23 08:42:09;;;;;;;;;;;;;;;1.97;100.00;103658.03;4979802;28;19924;-59
2023/01/23 08:44:35;;;;;;;;;;;;;;;1.98;100.00;103655.34;4993345;28;19914;-58
2023/01/23 08:47:01;;;;;;;;;;;;;;;2.01;100.00;103659.66;4986899;28;19913;-58
2023/01/23 08:49:26;;;;;;;;;;;;;;;2.02;100.00;103656.13;4989618;28;20332;-59
2023/01/23 08:51:51;;;;;;;;;;;;;;;2.05;100.00;103664.78;4979660;28;20385;-58
2023/01/23 08:54:17;;;;;;;;;;;;;;;2.07;100.00;103670.81;4987617;28;20008;-58
2023/01/23 08:56:42;;;;;;;;;;;;;;;2.09;100.00;103671.63;4988787;28;19914;-58
2023/01/23 08:59:07;;;;;;;;;;;;;;;2.11;100.00;103672.44;4980922;28;20015;-58
2023/01/23 09:01:33;;;;;;;;;;;;;;;2.15;100.00;103676.69;4984081;28;20436;-59
2023/01/23 09:03:58;;;;;;;;;;;;;;;2.18;100.00;103683.59;4988761;28;19946;-58
2023/01/23 09:06:23;;;;;;;;;;;;;;;2.21;100.00;103677.41;4985694;28;20333;-59
2023/01/23 09:08:49;;;;;;;;;;;;;;;2.24;100.00;103682.56;4988382;28;19925;-59
2023/01/23 09:11:14;;;;;;;;;;;;;;;2.26;100.00;103685.97;4991734;28;19933;-59
2023/01/23 09:13:39;;;;;;;;;;;;;;;2.28;100.00;103684.16;4991345;28;19979;-58
2023/01/23 09:16:07;;;;;;;;;;;;;;;2.30;100.00;103680.59;4986709;28;19922;-57
2023/01/23 09:18:32;;;;;;;;;;;;;;;2.33;100.00;103670.03;4989237;28;19913;-57
2023/01/23 09:20:57;;;;;;;;;;;;;;;2.37;100.00;103668.19;4987672;28;19920;-58
2023/01/23 09:23:23;;;;;;;;;;;;;;;2.40;100.00;103662.81;4990510;28;20028;-58
2023/01/23 09:25:48;;;;;;;;;;;;;;;2.44;100.00;103662.69;4988242;28;19921;-58
2023/01/23 09:28:13;;;;;;;;;;;;;;;2.46;100.00;103662.63;4986366;28;19926;-59
2023/01/23 09:30:38;;;;;;;;;;;;;;;2.51;100.00;103665.09;4981749;28;19918;-59
2023/01/23 09:33:04;;;;;;;;;;;;;;;2.53;100.00;103664.13;4997201;28;19975;-59
2023/01/23 09:35:29;;;;;;;;;;;;;;;2.58;100.00;103667.47;4992603;28;19914;-58
2023/01/23 09:38:00;;;;;;;;;;;;;;;2.58;100.00;103662.22;4991313;28;19920;-59
2023/01/23 09:40:34;;;;;;;;;;;;;;;2.59;100.00;103674.44;4986004;28;19913;-57
2023/01/23 09:43:22;;;;;;;;;;;;;;;2.63;100.00;103685.72;4992795;28;19920;-57
2023/01/23 09:46:13;;;;;;;;;;;;;;;2.64;100.00;103693.53;4979431;28;20020;-58
2023/01/23 09:48:45;;;;;;;;;;;;;;;2.66;100.00;103696.97;4993617;28;20412;-59
2023/01/23 09:51:13;;;;;;;;;;;;;;;2.68;100.00;103703.03;5003760;28;19967;-58
2023/01/23 09:53:38;;;;;;;;;;;;;;;2.71;100.00;103702.06;4989348;28;20447;-58
2023/01/23 09:56:11;;;;;;;;;;;;;;;2.71;100.00;103704.69;4990571;28;20013;-57
2023/01/23 09:58:39;;;;;;;;;;;;;;;2.73;100.00;103708.97;4997398;28;20284;-58
2023/01/23 10:01:08;;;;;;;;;;;;;;;2.75;100.00;103703.66;4998959;28;19913;-58
2023/01/23 10:03:33;;;;;;;;;;;;;;;2.76;100.00;103694.88;5003227;28;19924;-58
2023/01/23 10:06:04;;;;;;;;;;;;;;;2.78;100.00;103699.19;4996557;28;20009;-58
2023/01/23 10:08:35;;;;;;;;;;;;;;;2.80;100.00;103701.75;4990477;28;19917;-58
2023/01/23 10:11:01;;;;;;;;;;;;;;;2.81;100.00;103692.97;4993155;28;19929;-59
2023/01/23 10:13:29;;;;;;;;;;;;;;;2.83;100.00;103693.78;4988097;28;19949;-58
2023/01/23 10:16:13;;;;;;;;;;;;;;;2.85;100.00;103699.84;4988199;28;19925;-58
2023/01/23 10:18:46;;;;;;;;;;;;;;;2.87;100.00;103691.91;4989862;28;19925;-59
2023/01/23 10:21:27;;;;;;;;;;;;;;;2.88;100.00;103693.63;4991510;28;19921;-58
2023/01/23 10:23:53;;;;;;;;;;;;;;;2.88;100.00;103697.09;4988205;28;19918;-58
2023/01/23 10:26:20;;;;;;;;;;;;;;;2.91;100.00;103701.41;4988123;28;19918;-58
2023/01/23 10:28:46;;;;;;;;;;;;;;;2.94;100.00;103696.06;5004257;28;20052;-59
2023/01/23 10:31:30;;;;;;;;;;;;;;;2.95;100.00;103685.50;5003172;28;20012;-58
2023/01/23 10:34:00;;;;;;;;;;;;;;;3.00;100.00;103680.09;4998666;28;19917;-59
2023/01/23 10:36:37;;;;;;;;;;;;;;;3.01;100.00;103687.94;4988644;28;20534;-59
2023/01/23 10:39:08;;;;;;;;;;;;;;;3.04;100.00;103687.81;4987486;28;19918;-58
2023/01/23 10:41:34;;;;;;;;;;;;;;;3.08;100.00;103696.44;4992975;28;19918;-58
2023/01/23 10:43:59;;;;;;;;;;;;;;;3.13;100.00;103691.03;4990944;28;20048;-57
2023/01/23 10:46:32;;;;;;;;;;;;;;;3.14;100.00;103690.13;4985256;28;19953;-58
2023/01/23 10:48:58;;;;;;;;;;;;;;;3.16;100.00;103691.78;5000391;28;19949;-58
2023/01/23 10:51:32;;;;;;;;;;;;;;;3.18;100.00;103690.00;4981909;28;20405;-57
2023/01/23 10:54:17;;;;;;;;;;;;;;;3.19;100.00;103681.22;4994106;28;19913;-59
2023/01/23 10:56:46;;;;;;;;;;;;;;;3.22;100.00;103686.34;4999694;28;19949;-58
2023/01/23 10:59:20;;;;;;;;;;;;;;;3.24;100.00;103684.53;4985123;28;20301;-58
2023/01/23 11:01:53;;;;;;;;;;;;;;;3.21;100.00;103684.63;4982550;28;19924;-58
2023/01/23 11:04:20;;;;;;;;;;;;;;;3.22;100.00;103681.09;4988287;28;19917;-58
2023/01/23 11:06:59;;;;;;;;;;;;;;;3.23;100.00;103677.56;4993189;28;19914;-57
2023/01/23 11:09:24;;;;;;;;;;;;;;;3.24;100.00;103679.28;4986880;28;19918;-58
2023/01/23 11:12:00;;;;;;;;;;;;;;;3.26;100.00;103672.19;4989653;28;19977;-58
2023/01/23 11:14:25;;;;;;;;;;;;;;;3.27;100.00;103673.91;4984965;28;19937;-58
2023/01/23 11:17:00;;;;;;;;;;;;;;;3.29;100.00;103677.34;4987146;28;19918;-57
2023/01/23 11:19:26;;;;;;;;;;;;;;;3.32;100.00;103679.00;4985149;28;19957;-58
2023/01/23 11:21:56;;;;;;;;;;;;;;;3.36;99.93;103686.72;4991767;28;19953;-57
2023/01/23 11:24:24;;;;;;;;;;;;;;;3.39;100.00;103688.38;4984013;28;19961;-58
2023/01/23 11:27:03;;;;;;;;;;;;;;;3.43;99.98;103682.94;4986339;28;20008;-59
2023/01/23 11:29:29;;;;;;;;;;;;;;;3.44;99.82;103678.53;4988516;28;19918;-59
2023/01/23 11:32:03;;;;;;;;;;;;;;;3.44;99.59;103678.53;4984813;28;19926;-58
2023/01/23 11:34:33;;;;;;;;;;;;;;;3.46;99.58;103681.13;4990323;28;19918;-58
2023/01/23 11:37:04;;;;;;;;;;;;;;;3.49;99.80;103683.66;4993659;28;19918;-59
2023/01/23 11:39:41;;;;;;;;;;;;;;;3.55;99.90;103693.94;4987971;28;20009;-57
2023/01/23 11:42:10;;;;;;;;;;;;;;;3.58;99.68;103699.09;4982383;28;20730;-58
2023/01/23 11:44:36;;;;;;;;;;;;;;;3.62;99.71;103684.94;4986837;28;19917;-59
2023/01/23 11:47:16;;;;;;;;;;;;;;;3.65;99.86;103690.94;4979617;28;19922;-59
2023/01/23 11:49:58;;;;;;;;;;;;;;;3.68;99.86;103685.56;4987171;28;19924;-58
2023/01/23 11:52:31;;;;;;;;;;;;;;;3.72;99.51;103691.56;4979104;28;19929;-59
2023/01/23 11:55:15;;;;;;;;;;;;;;;3.74;99.54;103702.88;4980434;28;19972;-59
2023/01/23 11:57:40;;;;;;;;;;;;;;;3.74;99.02;103697.59;4992276;28;19973;-60
2023/01/23 12:00:06;;;;;;;;;;;;;;;3.74;99.00;103695.84;4985722;28;19945;-57
2023/01/23 12:02:50;;;;;;;;;;;;;;;3.74;99.01;103687.94;4985462;28;19933;-59
2023/01/23 12:05:30;;;;;;;;;;;;;;;3.75;98.81;103691.44;4978740;28;20017;-58
2023/01/23 12:08:04;;;;;;;;;;;;;;;3.76;98.88;103687.03;4986813;28;20012;-58
2023/01/23 12:10:32;;;;;;;;;;;;;;;3.74;98.38;103687.09;4986665;28;19941;-57
2023/01/23 12:13:00;;;;;;;;;;;;;;;3.69;98.22;103679.38;4999009;28;19924;-58
2023/01/23 12:15:40;;;;;;;;;;;;;;;3.68;98.00;103682.06;4993861;28;19925;-55
2023/01/23 12:18:17;;;;;;;;;;;;;;;3.67;97.97;103685.63;4985809;28;19961;-57
2023/01/23 12:20:42;;;;;;;;;;;;;;;3.63;97.47;103682.25;4991219;28;20535;-59
2023/01/23 12:23:07;;;;;;;;;;;;;;;3.63;97.55;103687.50;5004103;28;20546;-58
2023/01/23 12:25:37;;;;;;;;;;;;;;;3.64;97.74;103683.94;4975741;28;19918;-59
2023/01/23 12:28:20;;;;;;;;;;;;;;;3.64;97.36;103680.47;4978811;28;19944;-59
2023/01/23 12:31:08;;;;;;;;;;;;;;;3.63;97.37;103673.50;4982782;28;20004;-57
2023/01/23 12:33:33;;;;;;;;;;;;;;;3.61;97.09;103681.44;4983484;28;20001;-57
2023/01/23 12:36:23;;;;;;;;;;;;;;;3.60;97.28;103678.88;4987272;28;20008;-59
2023/01/23 12:38:57;;;;;;;;;;;;;;;3.60;97.05;103676.25;4983435;28;19998;-58
2023/01/23 12:41:25;;;;;;;;;;;;;;;3.61;97.15;103675.31;4984322;28;21488;-59
2023/01/23 12:44:09;;;;;;;;;;;;;;;3.60;97.01;103676.25;4987065;28;19922;-59
2023/01/23 12:46:53;;;;;;;;;;;;;;;3.60;97.22;103678.88;4992701;28;19924;-57
2023/01/23 12:49:36;;;;;;;;;;;;;;;3.59;96.80;103682.41;4986788;28;20016;-58